sensor_id;sensor_type;location;lat;lon;timestamp;pressure;altitude;pressure_sealevel;temperature;humidity
13478;BME280;12598;62.382;17.344;2023-05-22T00:00:53;102452.00;;;23.04;28.50
13478;BME280;12598;62.382;17.344;2023-05-22T00:01:55;102454.72;;;23.04;28.57
13478;BME280;12598;62.382;17.344;2023-05-22T00:02:57;102457.41;;;23.04;29.24
13478;BME280;12598;62.382;17.344;2023-05-22T00:03:59;102461.09;;;23.03;29.00
13478;BME280;12598;62.382;17.344;2023-05-22T00:05:06;102456.53;;;23.04;28.99
13478;BME280;12598;62.382;17.344;2023-05-22T00:06:08;102457.41;;;23.04;28.67
13478;BME280;12598;62.382;17.344;2023-05-22T00:07:12;102454.72;;;23.04;28.95
13478;BME280;12598;62.382;17.344;2023-05-22T00:08:14;102449.16;;;22.96;28.84
13478;BME280;12598;62.382;17.344;2023-05-22T00:09:16;102452.41;;;23.00;28.80
13478;BME280;12598;62.382;17.344;2023-05-22T00:10:18;102453.28;;;23.00;28.50
13478;BME280;12598;62.382;17.344;2023-05-22T00:11:21;102458.69;;;23.00;28.76
13478;BME280;12598;62.382;17.344;2023-05-22T00:12:23;102462.38;;;22.99;28.73
13478;BME280;12598;62.382;17.344;2023-05-22T00:13:25;102459.69;;;22.99;28.74
13478;BME280;12598;62.382;17.344;2023-05-22T00:14:27;102451.28;;;22.93;28.86
13478;BME280;12598;62.382;17.344;2023-05-22T00:15:29;102468.75;;;22.98;28.59
13478;BME280;12598;62.382;17.344;2023-05-22T00:16:31;102465.19;;;22.98;28.52
13478;BME280;12598;62.382;17.344;2023-05-22T00:17:33;102466.19;;;22.97;28.86
13478;BME280;12598;62.382;17.344;2023-05-22T00:18:35;102462.66;;;22.96;29.26
13478;BME280;12598;62.382;17.344;2023-05-22T00:19:36;102456.38;;;22.96;28.83
13478;BME280;12598;62.382;17.344;2023-05-22T00:20:39;102458.22;;;22.95;28.47
13478;BME280;12598;62.382;17.344;2023-05-22T00:21:42;102454.69;;;22.95;29.19
13478;BME280;12598;62.382;17.344;2023-05-22T00:22:44;102453.81;;;22.94;28.42
13478;BME280;12598;62.382;17.344;2023-05-22T00:23:46;102452.09;;;22.93;28.50
13478;BME280;12598;62.382;17.344;2023-05-22T00:24:48;102446.72;;;22.93;29.23
13478;BME280;12598;62.382;17.344;2023-05-22T00:25:50;102455.81;;;22.92;28.82
13478;BME280;12598;62.382;17.344;2023-05-22T00:26:51;102454.97;;;22.92;29.19
13478;BME280;12598;62.382;17.344;2023-05-22T00:27:53;102454.09;;;22.91;29.21
13478;BME280;12598;62.382;17.344;2023-05-22T00:28:55;102456.06;;;22.89;28.39
13478;BME280;12598;62.382;17.344;2023-05-22T00:29:57;102460.47;;;22.90;28.68
13478;BME280;12598;62.382;17.344;2023-05-22T00:30:59;102457.06;;;22.88;29.04
13478;BME280;12598;62.382;17.344;2023-05-22T00:32:01;102458.78;;;22.89;28.55
13478;BME280;12598;62.382;17.344;2023-05-22T00:33:03;102460.63;;;22.89;29.18
13478;BME280;12598;62.382;17.344;2023-05-22T00:34:06;102467.88;;;22.88;28.77
13478;BME280;12598;62.382;17.344;2023-05-22T00:35:08;102463.47;;;22.87;29.01
13478;BME280;12598;62.382;17.344;2023-05-22T00:36:10;102438.59;;;22.74;28.88
13478;BME280;12598;62.382;17.344;2023-05-22T00:37:12;102464.44;;;22.86;28.52
13478;BME280;12598;62.382;17.344;2023-05-22T00:38:31;102461.34;;;22.91;29.27
13478;BME280;12598;62.382;17.344;2023-05-22T00:39:33;102465.88;;;22.90;28.58
13478;BME280;12598;62.382;17.344;2023-05-22T00:40:35;102470.56;;;22.88;28.85
13478;BME280;12598;62.382;17.344;2023-05-22T00:41:37;102472.53;;;22.86;29.35
13478;BME280;12598;62.382;17.344;2023-05-22T00:42:39;102474.41;;;22.86;29.11
13478;BME280;12598;62.382;17.344;2023-05-22T00:43:41;102469.13;;;22.84;29.32
13478;BME280;12598;62.382;17.344;2023-05-22T00:44:43;102470.13;;;22.83;29.30
13478;BME280;12598;62.382;17.344;2023-05-22T00:45:45;102463.44;;;22.78;29.12
13478;BME280;12598;62.382;17.344;2023-05-22T00:46:49;102464.88;;;22.82;29.33
13478;BME280;12598;62.382;17.344;2023-05-22T00:47:51;102471.13;;;22.82;28.67
13478;BME280;12598;62.382;17.344;2023-05-22T00:48:53;102469.41;;;22.81;28.62
13478;BME280;12598;62.382;17.344;2023-05-22T00:49:55;102467.69;;;22.80;28.91
13478;BME280;12598;62.382;17.344;2023-05-22T00:50:57;102471.38;;;22.79;29.10
13478;BME280;12598;62.382;17.344;2023-05-22T00:52:01;102473.09;;;22.80;28.65
13478;BME280;12598;62.382;17.344;2023-05-22T00:53:03;102455.75;;;22.73;29.17
13478;BME280;12598;62.382;17.344;2023-05-22T00:54:05;102472.38;;;22.78;28.62
13478;BME280;12598;62.382;17.344;2023-05-22T00:55:08;102475.06;;;22.78;28.68
13478;BME280;12598;62.382;17.344;2023-05-22T00:56:11;102468.38;;;22.73;29.17
13478;BME280;12598;62.382;17.344;2023-05-22T00:57:13;102474.25;;;22.78;28.69
13478;BME280;12598;62.382;17.344;2023-05-22T00:58:18;102465.94;;;22.70;29.06
13478;BME280;12598;62.382;17.344;2023-05-22T00:59:21;102481.34;;;22.79;28.59
13478;BME280;12598;62.382;17.344;2023-05-22T01:00:24;102473.38;;;22.77;28.72
13478;BME280;12598;62.382;17.344;2023-05-22T01:01:26;102477.94;;;22.77;29.35
13478;BME280;12598;62.382;17.344;2023-05-22T01:02:34;102474.25;;;22.78;28.51
13478;BME280;12598;62.382;17.344;2023-05-22T01:03:38;102477.94;;;22.77;29.18
13478;BME280;12598;62.382;17.344;2023-05-22T01:04:46;102477.06;;;22.76;29.21
13478;BME280;12598;62.382;17.344;2023-05-22T01:05:51;102485.16;;;22.76;28.56
13478;BME280;12598;62.382;17.344;2023-05-22T01:06:54;102479.88;;;22.75;28.64
13478;BME280;12598;62.382;17.344;2023-05-22T01:07:56;102487.13;;;22.74;28.93
13478;BME280;12598;62.382;17.344;2023-05-22T01:08:58;102483.72;;;22.72;29.10
13478;BME280;12598;62.382;17.344;2023-05-22T01:10:00;102483.72;;;22.72;29.25
13478;BME280;12598;62.382;17.344;2023-05-22T01:15:54;102479.91;;;22.84;29.06
13478;BME280;12598;62.382;17.344;2023-05-22T01:17:05;102483.88;;;22.80;29.18
13478;BME280;12598;62.382;17.344;2023-05-22T01:18:26;102487.44;;;22.81;29.17
13478;BME280;12598;62.382;17.344;2023-05-22T01:21:15;102490.00;;;22.82;28.47
13478;BME280;12598;62.382;17.344;2023-05-22T01:28:01;102484.03;;;22.79;28.31
13478;BME280;12598;62.382;17.344;2023-05-22T01:30:46;102481.91;;;22.82;29.04
13478;BME280;12598;62.382;17.344;2023-05-22T01:31:51;102477.06;;;22.76;28.88
13478;BME280;12598;62.382;17.344;2023-05-22T01:32:57;102469.63;;;22.69;28.86
13478;BME280;12598;62.382;17.344;2023-05-22T01:34:01;102478.72;;;22.68;29.04
13478;BME280;12598;62.382;17.344;2023-05-22T01:35:06;102480.00;;;22.64;28.64
13478;BME280;12598;62.382;17.344;2023-05-22T01:36:13;102473.75;;;22.63;29.20
13478;BME280;12598;62.382;17.344;2023-05-22T01:37:18;102481.97;;;22.62;29.48
13478;BME280;12598;62.382;17.344;2023-05-22T01:38:20;102461.34;;;22.51;29.13
13478;BME280;12598;62.382;17.344;2023-05-22T01:39:23;102483.94;;;22.60;28.79
13478;BME280;12598;62.382;17.344;2023-05-22T01:40:27;102470.75;;;22.57;29.30
13478;BME280;12598;62.382;17.344;2023-05-22T01:41:31;102475.03;;;22.59;28.71
13478;BME280;12598;62.382;17.344;2023-05-22T01:42:34;102475.84;;;22.60;29.12
13478;BME280;12598;62.382;17.344;2023-05-22T01:43:35;102463.03;;;22.52;29.17
13478;BME280;12598;62.382;17.344;2023-05-22T01:44:38;102464.50;;;22.56;29.49
13478;BME280;12598;62.382;17.344;2023-05-22T01:45:39;102470.91;;;22.55;29.52
13478;BME280;12598;62.382;17.344;2023-05-22T01:46:42;102469.91;;;22.56;29.06
13478;BME280;12598;62.382;17.344;2023-05-22T01:47:43;102470.91;;;22.55;28.82
13478;BME280;12598;62.382;17.344;2023-05-22T01:48:45;102465.63;;;22.54;29.10
13478;BME280;12598;62.382;17.344;2023-05-22T01:49:47;102467.31;;;22.55;29.29
13478;BME280;12598;62.382;17.344;2023-05-22T01:50:51;102472.00;;;22.53;29.08
13478;BME280;12598;62.382;17.344;2023-05-22T01:52:04;102466.34;;;22.56;29.08
13478;BME280;12598;62.382;17.344;2023-05-22T01:53:42;102469.91;;;22.66;28.67
13478;BME280;12598;62.382;17.344;2023-05-22T01:55:59;102476.56;;;22.62;28.65
13478;BME280;12598;62.382;17.344;2023-05-22T01:57:26;102472.50;;;22.67;28.97
13478;BME280;12598;62.382;17.344;2023-05-22T02:00:06;102474.19;;;22.68;29.06
13478;BME280;12598;62.382;17.344;2023-05-22T02:01:18;102469.09;;;22.65;28.89
13478;BME280;12598;62.382;17.344;2023-05-22T02:02:24;102475.75;;;22.61;29.21
13478;BME280;12598;62.382;17.344;2023-05-22T02:03:30;102475.28;;;22.56;28.56
13478;BME280;12598;62.382;17.344;2023-05-22T02:04:37;102473.59;;;22.55;28.84
13478;BME280;12598;62.382;17.344;2023-05-22T02:05:41;102471.88;;;22.54;28.71
13478;BME280;12598;62.382;17.344;2023-05-22T02:06:44;102473.00;;;22.52;29.32
13478;BME280;12598;62.382;17.344;2023-05-22T02:07:47;102484.63;;;22.52;28.95
13478;BME280;12598;62.382;17.344;2023-05-22T02:08:51;102484.75;;;22.51;28.98
13478;BME280;12598;62.382;17.344;2023-05-22T02:09:55;102478.50;;;22.50;29.28
13478;BME280;12598;62.382;17.344;2023-05-22T02:10:59;102482.19;;;22.49;28.79
13478;BME280;12598;62.382;17.344;2023-05-22T02:12:03;102479.50;;;22.49;29.40
13478;BME280;12598;62.382;17.344;2023-05-22T02:13:05;102478.66;;;22.49;29.04
13478;BME280;12598;62.382;17.344;2023-05-22T02:14:08;102476.94;;;22.48;29.19
13478;BME280;12598;62.382;17.344;2023-05-22T02:15:13;102475.25;;;22.47;29.38
13478;BME280;12598;62.382;17.344;2023-05-22T02:16:15;102476.94;;;22.48;29.04
13478;BME280;12598;62.382;17.344;2023-05-22T02:17:19;102475.09;;;22.48;29.58
13478;BME280;12598;62.382;17.344;2023-05-22T02:18:29;102480.47;;;22.48;29.26
13478;BME280;12598;62.382;17.344;2023-05-22T02:19:33;102476.78;;;22.49;29.33
13478;BME280;12598;62.382;17.344;2023-05-22T02:20:36;102473.25;;;22.49;28.78
13478;BME280;12598;62.382;17.344;2023-05-22T02:21:39;102475.09;;;22.48;29.52
13478;BME280;12598;62.382;17.344;2023-05-22T02:22:41;102471.69;;;22.47;29.50
13478;BME280;12598;62.382;17.344;2023-05-22T02:23:45;102468.00;;;22.48;29.23
13478;BME280;12598;62.382;17.344;2023-05-22T02:24:47;102468.16;;;22.46;28.93
13478;BME280;12598;62.382;17.344;2023-05-22T02:25:50;102471.69;;;22.47;28.99
13478;BME280;12598;62.382;17.344;2023-05-22T02:26:52;102472.66;;;22.46;29.51
13478;BME280;12598;62.382;17.344;2023-05-22T02:27:54;102467.28;;;22.46;29.03
13478;BME280;12598;62.382;17.344;2023-05-22T02:28:57;102468.25;;;22.45;29.08
13478;BME280;12598;62.382;17.344;2023-05-22T02:29:59;102469.13;;;22.45;29.52
13478;BME280;12598;62.382;17.344;2023-05-22T02:31:01;102471.84;;;22.45;28.79
13478;BME280;12598;62.382;17.344;2023-05-22T02:32:04;102467.28;;;22.46;29.33
13478;BME280;12598;62.382;17.344;2023-05-22T02:33:06;102459.47;;;22.43;29.09
13478;BME280;12598;62.382;17.344;2023-05-22T02:34:09;102462.88;;;22.45;29.05
13478;BME280;12598;62.382;17.344;2023-05-22T02:35:11;102466.44;;;22.45;28.80
13478;BME280;12598;62.382;17.344;2023-05-22T02:36:13;102457.47;;;22.45;29.56
13478;BME280;12598;62.382;17.344;2023-05-22T02:37:15;102455.31;;;22.39;29.29
13478;BME280;12598;62.382;17.344;2023-05-22T02:38:17;102452.78;;;22.37;29.08
13478;BME280;12598;62.382;17.344;2023-05-22T02:39:19;102464.72;;;22.44;28.85
13478;BME280;12598;62.382;17.344;2023-05-22T02:40:21;102469.25;;;22.44;28.73
13478;BME280;12598;62.382;17.344;2023-05-22T02:41:23;102455.47;;;22.37;29.36
13478;BME280;12598;62.382;17.344;2023-05-22T02:42:26;102463.88;;;22.44;29.61
13478;BME280;12598;62.382;17.344;2023-05-22T02:43:28;102463.88;;;22.44;29.41
13478;BME280;12598;62.382;17.344;2023-05-22T02:44:30;102465.72;;;22.43;29.02
13478;BME280;12598;62.382;17.344;2023-05-22T02:45:32;102462.03;;;22.44;28.95
13478;BME280;12598;62.382;17.344;2023-05-22T02:46:34;102456.75;;;22.43;29.48
13478;BME280;12598;62.382;17.344;2023-05-22T02:47:37;102458.47;;;22.44;29.63
13478;BME280;12598;62.382;17.344;2023-05-22T02:48:39;102459.47;;;22.43;29.55
13478;BME280;12598;62.382;17.344;2023-05-22T02:49:41;102470.25;;;22.43;29.09
13478;BME280;12598;62.382;17.344;2023-05-22T02:50:43;102464.84;;;22.43;29.14
13478;BME280;12598;62.382;17.344;2023-05-22T02:51:45;102465.84;;;22.42;28.89
13478;BME280;12598;62.382;17.344;2023-05-22T02:52:48;102468.41;;;22.43;29.52
13478;BME280;12598;62.382;17.344;2023-05-22T02:53:51;102455.94;;;22.42;29.05
13478;BME280;12598;62.382;17.344;2023-05-22T02:54:53;102456.75;;;22.43;29.81
13478;BME280;12598;62.382;17.344;2023-05-22T02:55:56;102466.72;;;22.42;29.70
13478;BME280;12598;62.382;17.344;2023-05-22T02:56:59;102464.00;;;22.42;29.04
13478;BME280;12598;62.382;17.344;2023-05-22T02:58:01;102463.16;;;22.42;29.27
13478;BME280;12598;62.382;17.344;2023-05-22T02:59:03;102463.16;;;22.42;29.19
13478;BME280;12598;62.382;17.344;2023-05-22T03:00:06;102465.00;;;22.41;28.88
13478;BME280;12598;62.382;17.344;2023-05-22T03:01:12;102469.25;;;22.44;29.51
13478;BME280;12598;62.382;17.344;2023-05-22T03:02:14;102465.00;;;22.41;29.31
13478;BME280;12598;62.382;17.344;2023-05-22T03:03:17;102471.22;;;22.42;29.53
13478;BME280;12598;62.382;17.344;2023-05-22T03:04:19;102471.22;;;22.42;29.46
13478;BME280;12598;62.382;17.344;2023-05-22T03:05:21;102468.69;;;22.40;29.04
13478;BME280;12598;62.382;17.344;2023-05-22T03:06:25;102460.44;;;22.42;29.73
13478;BME280;12598;62.382;17.344;2023-05-22T03:07:27;102464.13;;;22.41;29.72
13478;BME280;12598;62.382;17.344;2023-05-22T03:08:30;102466.72;;;22.42;29.40
13478;BME280;12598;62.382;17.344;2023-05-22T03:09:32;102469.53;;;22.41;29.79
13478;BME280;12598;62.382;17.344;2023-05-22T03:10:35;102467.69;;;22.41;29.89
13478;BME280;12598;62.382;17.344;2023-05-22T03:11:37;102462.44;;;22.40;29.08
13478;BME280;12598;62.382;17.344;2023-05-22T03:12:39;102469.53;;;22.41;29.91
13478;BME280;12598;62.382;17.344;2023-05-22T03:13:41;102462.44;;;22.40;29.39
13478;BME280;12598;62.382;17.344;2023-05-22T03:14:43;102463.31;;;22.40;28.97
13478;BME280;12598;62.382;17.344;2023-05-22T03:15:45;102468.69;;;22.40;28.98
13478;BME280;12598;62.382;17.344;2023-05-22T03:16:49;102474.78;;;22.42;29.28
13478;BME280;12598;62.382;17.344;2023-05-22T03:17:51;102472.09;;;22.42;28.91
13478;BME280;12598;62.382;17.344;2023-05-22T03:19:13;102477.78;;;22.48;29.22
13478;BME280;12598;62.382;17.344;2023-05-22T03:20:15;102473.25;;;22.49;29.00
13478;BME280;12598;62.382;17.344;2023-05-22T03:21:18;102473.38;;;22.48;28.80
13478;BME280;12598;62.382;17.344;2023-05-22T03:22:20;102474.53;;;22.45;29.28
13478;BME280;12598;62.382;17.344;2023-05-22T03:23:24;102468.97;;;22.47;29.59
13478;BME280;12598;62.382;17.344;2023-05-22T03:24:27;102468.16;;;22.46;29.60
13478;BME280;12598;62.382;17.344;2023-05-22T03:25:29;102466.44;;;22.45;29.59
13478;BME280;12598;62.382;17.344;2023-05-22T03:26:31;102467.28;;;22.46;29.00
13478;BME280;12598;62.382;17.344;2023-05-22T03:27:34;102441.50;;;22.32;29.63
13478;BME280;12598;62.382;17.344;2023-05-22T03:28:36;102463.59;;;22.47;29.66
13478;BME280;12598;62.382;17.344;2023-05-22T03:29:38;102465.28;;;22.48;28.76
13478;BME280;12598;62.382;17.344;2023-05-22T03:30:40;102465.28;;;22.48;29.01
13478;BME280;12598;62.382;17.344;2023-05-22T03:31:47;102464.19;;;22.50;29.58
13478;BME280;12598;62.382;17.344;2023-05-22T03:32:49;102470.41;;;22.50;29.09
13478;BME280;12598;62.382;17.344;2023-05-22T03:33:54;102472.13;;;22.51;28.81
13478;BME280;12598;62.382;17.344;2023-05-22T03:34:56;102470.41;;;22.50;28.91
13478;BME280;12598;62.382;17.344;2023-05-22T03:35:59;102472.13;;;22.51;28.80
13478;BME280;12598;62.382;17.344;2023-05-22T03:37:01;102461.88;;;22.46;29.25
13478;BME280;12598;62.382;17.344;2023-05-22T03:38:04;102459.63;;;22.50;28.88
13478;BME280;12598;62.382;17.344;2023-05-22T03:39:06;102468.72;;;22.49;29.42
13478;BME280;12598;62.382;17.344;2023-05-22T03:40:13;102462.22;;;22.52;29.57
13478;BME280;12598;62.382;17.344;2023-05-22T03:41:16;102459.63;;;22.50;29.08
13478;BME280;12598;62.382;17.344;2023-05-22T03:42:18;102463.19;;;22.51;28.91
13478;BME280;12598;62.382;17.344;2023-05-22T03:43:20;102457.94;;;22.49;29.39
13478;BME280;12598;62.382;17.344;2023-05-22T03:44:23;102455.22;;;22.49;29.01
13478;BME280;12598;62.382;17.344;2023-05-22T03:45:25;102455.22;;;22.49;29.50
13478;BME280;12598;62.382;17.344;2023-05-22T03:46:27;102457.94;;;22.49;28.97
13478;BME280;12598;62.382;17.344;2023-05-22T03:47:30;102458.06;;;22.48;29.64
13478;BME280;12598;62.382;17.344;2023-05-22T03:48:33;102444.00;;;22.45;29.42
13478;BME280;12598;62.382;17.344;2023-05-22T03:49:35;102456.94;;;22.50;29.15
13478;BME280;12598;62.382;17.344;2023-05-22T03:50:38;102456.94;;;22.50;29.38
13478;BME280;12598;62.382;17.344;2023-05-22T03:51:41;102448.84;;;22.50;29.87
13478;BME280;12598;62.382;17.344;2023-05-22T03:52:43;102457.94;;;22.49;29.13
13478;BME280;12598;62.382;17.344;2023-05-22T03:53:45;102458.78;;;22.50;29.46
13478;BME280;12598;62.382;17.344;2023-05-22T03:54:48;102457.94;;;22.49;29.31
13478;BME280;12598;62.382;17.344;2023-05-22T03:55:50;102460.50;;;22.51;29.80
13478;BME280;12598;62.382;17.344;2023-05-22T03:56:52;102459.63;;;22.50;29.21
13478;BME280;12598;62.382;17.344;2023-05-22T03:57:54;102465.03;;;22.50;30.03
13478;BME280;12598;62.382;17.344;2023-05-22T03:58:56;102458.78;;;22.50;29.17
13478;BME280;12598;62.382;17.344;2023-05-22T03:59:58;102463.31;;;22.49;29.26
13478;BME280;12598;62.382;17.344;2023-05-22T04:01:13;102464.75;;;22.53;29.40
13478;BME280;12598;62.382;17.344;2023-05-22T04:02:15;102459.50;;;22.52;30.03
13478;BME280;12598;62.382;17.344;2023-05-22T04:03:17;102452.81;;;22.47;29.48
13478;BME280;12598;62.382;17.344;2023-05-22T04:04:20;102460.91;;;22.47;29.52
13478;BME280;12598;62.382;17.344;2023-05-22T04:05:24;102469.44;;;22.51;29.52
13478;BME280;12598;62.382;17.344;2023-05-22T04:06:26;102459.63;;;22.50;29.95
13478;BME280;12598;62.382;17.344;2023-05-22T04:07:28;102462.31;;;22.50;30.02
13478;BME280;12598;62.382;17.344;2023-05-22T04:08:30;102459.63;;;22.50;29.22
13478;BME280;12598;62.382;17.344;2023-05-22T04:09:34;102465.03;;;22.50;29.30
13478;BME280;12598;62.382;17.344;2023-05-22T04:10:36;102457.66;;;22.52;30.13
13478;BME280;12598;62.382;17.344;2023-05-22T04:11:39;102445.97;;;22.43;29.95
13478;BME280;12598;62.382;17.344;2023-05-22T04:12:42;102461.34;;;22.51;30.05
13478;BME280;12598;62.382;17.344;2023-05-22T04:13:48;102460.50;;;22.51;30.07
13478;BME280;12598;62.382;17.344;2023-05-22T04:14:51;102459.34;;;22.53;29.57
13478;BME280;12598;62.382;17.344;2023-05-22T04:15:53;102460.34;;;22.52;30.26
13478;BME280;12598;62.382;17.344;2023-05-22T04:16:58;102464.75;;;22.53;30.01
13478;BME280;12598;62.382;17.344;2023-05-22T04:18:01;102465.50;;;22.55;29.79
13478;BME280;12598;62.382;17.344;2023-05-22T04:19:03;102468.31;;;22.54;29.39
13478;BME280;12598;62.382;17.344;2023-05-22T04:20:06;102459.63;;;22.50;30.07
13478;BME280;12598;62.382;17.344;2023-05-22T04:21:09;102460.09;;;22.55;30.32
13478;BME280;12598;62.382;17.344;2023-05-22T04:22:12;102457.41;;;22.55;29.62
13478;BME280;12598;62.382;17.344;2023-05-22T04:23:14;102463.53;;;22.57;30.35
13478;BME280;12598;62.382;17.344;2023-05-22T04:24:16;102467.22;;;22.56;29.73
13478;BME280;12598;62.382;17.344;2023-05-22T04:25:19;102466.22;;;22.57;29.76
13478;BME280;12598;62.382;17.344;2023-05-22T04:26:21;102470.63;;;22.58;30.36
13478;BME280;12598;62.382;17.344;2023-05-22T04:27:23;102467.94;;;22.58;30.26
13478;BME280;12598;62.382;17.344;2023-05-22T04:28:25;102473.31;;;22.58;30.22
13478;BME280;12598;62.382;17.344;2023-05-22T04:29:27;102471.59;;;22.57;30.27
13478;BME280;12598;62.382;17.344;2023-05-22T04:30:30;102472.31;;;22.59;29.73
13478;BME280;12598;62.382;17.344;2023-05-22T04:31:35;102473.03;;;22.61;29.67
13478;BME280;12598;62.382;17.344;2023-05-22T04:32:38;102480.16;;;22.62;29.66
13478;BME280;12598;62.382;17.344;2023-05-22T04:33:41;102472.06;;;22.62;29.85
13478;BME280;12598;62.382;17.344;2023-05-22T04:34:46;102471.06;;;22.63;29.94
13478;BME280;12598;62.382;17.344;2023-05-22T04:35:50;102478.16;;;22.64;30.33
13478;BME280;12598;62.382;17.344;2023-05-22T04:36:52;102475.47;;;22.64;30.53
13478;BME280;12598;62.382;17.344;2023-05-22T04:37:58;102471.06;;;22.63;29.88
13478;BME280;12598;62.382;17.344;2023-05-22T04:39:02;102468.09;;;22.66;29.76
13478;BME280;12598;62.382;17.344;2023-05-22T04:40:07;102465.50;;;22.65;30.16
13478;BME280;12598;62.382;17.344;2023-05-22T04:41:10;102464.53;;;22.66;30.50
13478;BME280;12598;62.382;17.344;2023-05-22T04:42:13;102455.88;;;22.62;30.14
13478;BME280;12598;62.382;17.344;2023-05-22T04:43:16;102458.03;;;22.68;30.17
13478;BME280;12598;62.382;17.344;2023-05-22T04:44:19;102456.31;;;22.67;30.72
13478;BME280;12598;62.382;17.344;2023-05-22T04:45:26;102461.56;;;22.69;30.65
13478;BME280;12598;62.382;17.344;2023-05-22T04:46:33;102460.56;;;22.70;29.79
13478;BME280;12598;62.382;17.344;2023-05-22T04:47:36;102462.41;;;22.69;30.00
13478;BME280;12598;62.382;17.344;2023-05-22T04:48:40;102449.22;;;22.66;30.48
13478;BME280;12598;62.382;17.344;2023-05-22T04:49:42;102457.88;;;22.70;29.87
13478;BME280;12598;62.382;17.344;2023-05-22T04:50:48;102459.72;;;22.69;30.18
13478;BME280;12598;62.382;17.344;2023-05-22T04:51:50;102456.03;;;22.70;30.39
13478;BME280;12598;62.382;17.344;2023-05-22T04:52:54;102458.56;;;22.72;30.42
13478;BME280;12598;62.382;17.344;2023-05-22T04:53:58;102457.75;;;22.71;29.93
13478;BME280;12598;62.382;17.344;2023-05-22T04:55:01;102453.19;;;22.72;29.88
13478;BME280;12598;62.382;17.344;2023-05-22T04:56:06;102449.66;;;22.71;30.66
13478;BME280;12598;62.382;17.344;2023-05-22T04:57:08;102449.66;;;22.71;30.65
13478;BME280;12598;62.382;17.344;2023-05-22T04:58:11;102448.22;;;22.67;30.29
13478;BME280;12598;62.382;17.344;2023-05-22T04:59:13;102451.34;;;22.72;30.16
13478;BME280;12598;62.382;17.344;2023-05-22T05:00:17;102454.06;;;22.72;30.22
13478;BME280;12598;62.382;17.344;2023-05-22T05:01:20;102446.50;;;22.66;30.39
13478;BME280;12598;62.382;17.344;2023-05-22T05:02:22;102435.72;;;22.66;30.30
13478;BME280;12598;62.382;17.344;2023-05-22T05:03:25;102446.94;;;22.71;30.52
13478;BME280;12598;62.382;17.344;2023-05-22T05:04:28;102453.91;;;22.74;29.98
13478;BME280;12598;62.382;17.344;2023-05-22T05:05:29;102439.53;;;22.64;30.38
13478;BME280;12598;62.382;17.344;2023-05-22T05:06:32;102440.41;;;22.64;30.42
13478;BME280;12598;62.382;17.344;2023-05-22T05:07:37;102455.75;;;22.73;30.52
13478;BME280;12598;62.382;17.344;2023-05-22T05:08:39;102450.09;;;22.76;30.53
13478;BME280;12598;62.382;17.344;2023-05-22T05:09:43;102453.50;;;22.78;30.22
13478;BME280;12598;62.382;17.344;2023-05-22T05:10:45;102449.09;;;22.77;30.63
13478;BME280;12598;62.382;17.344;2023-05-22T05:11:47;102436.00;;;22.73;30.31
13478;BME280;12598;62.382;17.344;2023-05-22T05:12:50;102446.13;;;22.80;30.62
13478;BME280;12598;62.382;17.344;2023-05-22T05:13:52;102442.44;;;22.81;30.35
13478;BME280;12598;62.382;17.344;2023-05-22T05:14:54;102451.25;;;22.83;30.81
13478;BME280;12598;62.382;17.344;2023-05-22T05:15:57;102435.34;;;22.80;30.34
13478;BME280;12598;62.382;17.344;2023-05-22T05:16:59;102448.97;;;22.88;29.92
13478;BME280;12598;62.382;17.344;2023-05-22T05:18:03;102444.16;;;22.92;30.06
13478;BME280;12598;62.382;17.344;2023-05-22T05:19:05;102442.19;;;22.94;30.28
13478;BME280;12598;62.382;17.344;2023-05-22T05:20:07;102441.06;;;22.96;29.91
13478;BME280;12598;62.382;17.344;2023-05-22T05:21:09;102443.50;;;22.99;30.42
13478;BME280;12598;62.382;17.344;2023-05-22T05:22:11;102407.38;;;22.81;30.26
13478;BME280;12598;62.382;17.344;2023-05-22T05:23:13;102436.66;;;23.05;30.54
13478;BME280;12598;62.382;17.344;2023-05-22T05:24:16;102440.78;;;23.09;29.74
13478;BME280;12598;62.382;17.344;2023-05-22T05:25:19;102437.00;;;23.11;30.35
13478;BME280;12598;62.382;17.344;2023-05-22T05:26:21;102431.44;;;23.13;29.77
13478;BME280;12598;62.382;17.344;2023-05-22T05:27:24;102434.59;;;23.18;29.65
13478;BME280;12598;62.382;17.344;2023-05-22T05:28:27;102428.06;;;23.20;29.74
13478;BME280;12598;62.382;17.344;2023-05-22T05:29:29;102423.94;;;23.16;29.71
13478;BME280;12598;62.382;17.344;2023-05-22T05:30:37;102429.06;;;23.29;29.32
13478;BME280;12598;62.382;17.344;2023-05-22T05:31:48;102426.63;;;23.35;29.19
13478;BME280;12598;62.382;17.344;2023-05-22T05:33:25;102428.34;;;23.46;29.14
13478;BME280;12598;62.382;17.344;2023-05-22T05:34:40;102424.34;;;23.50;28.85
13478;BME280;12598;62.382;17.344;2023-05-22T05:35:54;102428.63;;;23.52;29.09
13478;BME280;12598;62.382;17.344;2023-05-22T05:36:59;102423.22;;;23.52;29.28
13478;BME280;12598;62.382;17.344;2023-05-22T05:38:01;102423.22;;;23.52;28.75
13478;BME280;12598;62.382;17.344;2023-05-22T05:39:06;102418.53;;;23.54;28.79
13478;BME280;12598;62.382;17.344;2023-05-22T05:40:09;102390.53;;;23.36;29.48
13478;BME280;12598;62.382;17.344;2023-05-22T05:41:17;102419.78;;;23.60;29.06
13478;BME280;12598;62.382;17.344;2023-05-22T05:42:24;102418.66;;;23.62;28.82
13478;BME280;12598;62.382;17.344;2023-05-22T05:43:30;102422.06;;;23.64;28.51
13478;BME280;12598;62.382;17.344;2023-05-22T05:44:37;102419.09;;;23.67;29.08
13478;BME280;12598;62.382;17.344;2023-05-22T05:45:41;102419.78;;;23.69;28.22